createdAt,value
2018-06-19T00:00:33.525Z,6.33
2018-06-19T00:03:03.787Z,6.43
2018-06-19T00:05:32.661Z,6.50
2018-06-19T00:08:02.614Z,6.53
2018-06-19T00:10:32.739Z,8.23
2018-06-19T00:13:01.452Z,6.47
2018-06-19T00:15:30.685Z,5.97
2018-06-19T00:18:03.572Z,6.43
2018-06-19T00:20:32.384Z,5.70
2018-06-19T00:23:01.260Z,7.47
2018-06-19T00:25:29.688Z,6.07
2018-06-19T00:27:59.371Z,5.70
2018-06-19T00:30:29.940Z,6.67
2018-06-19T00:32:58.692Z,7.10
2018-06-19T00:35:27.571Z,5.70
2018-06-19T00:37:56.408Z,5.90
2018-06-19T00:40:25.308Z,5.70
2018-06-19T00:42:55.480Z,6.27
2018-06-19T00:45:25.086Z,5.90
2018-06-19T00:47:55.520Z,6.00
2018-06-19T00:50:24.342Z,5.30
2018-06-19T00:52:53.177Z,5.90
2018-06-19T00:55:22.682Z,7.87
2018-06-19T00:57:51.662Z,5.10
2018-06-19T01:00:21.573Z,6.43
2018-06-19T01:02:50.942Z,5.30
2018-06-19T01:05:20.420Z,6.00
2018-06-19T01:07:49.429Z,5.63
2018-06-19T01:10:18.938Z,5.27
2018-06-19T01:12:48.444Z,5.70
2018-06-19T01:15:18.327Z,5.90
2018-06-19T01:17:47.107Z,6.03
2018-06-19T01:20:16.256Z,6.27
2018-06-19T01:22:46.210Z,6.27
2018-06-19T01:25:14.580Z,6.07
2018-06-19T01:27:44.395Z,6.23
2018-06-19T01:30:14.251Z,5.77
2018-06-19T01:32:42.580Z,6.07
2018-06-19T01:35:12.933Z,6.77
2018-06-19T01:37:41.886Z,5.90
2018-06-19T01:40:10.735Z,4.90
2018-06-19T01:42:40.645Z,6.60
2018-06-19T01:45:10.255Z,6.43
2018-06-19T01:47:39.046Z,6.07
2018-06-19T01:50:09.825Z,5.63
2018-06-19T01:52:38.319Z,5.90
2018-06-19T01:55:07.882Z,6.20
2018-06-19T01:57:37.031Z,6.10
2018-06-19T02:00:06.611Z,5.90
2018-06-19T02:02:34.989Z,5.67
2018-06-19T02:05:03.948Z,6.57
2018-06-19T02:07:33.106Z,5.50
2018-06-19T02:10:02.462Z,5.77
2018-06-19T02:12:33.106Z,7.80
2018-06-19T02:15:01.948Z,5.97
2018-06-19T02:17:30.426Z,6.50
2018-06-19T02:19:59.810Z,6.63
2018-06-19T02:22:28.860Z,5.60
2018-06-19T02:24:57.348Z,5.60
2018-06-19T02:27:26.851Z,5.37
2018-06-19T02:29:55.735Z,6.50
2018-06-19T02:32:26.111Z,6.97
2018-06-19T02:34:55.831Z,6.37
2018-06-19T02:37:25.947Z,6.87
2018-06-19T02:39:54.941Z,5.13
2018-06-19T02:42:25.117Z,5.77
2018-06-19T02:44:54.006Z,6.27
2018-06-19T02:47:22.700Z,6.00
2018-06-19T02:49:54.234Z,6.57
2018-06-19T02:52:24.131Z,5.87
2018-06-19T02:54:53.004Z,6.10
2018-06-19T02:57:22.009Z,5.00
2018-06-19T02:59:50.931Z,6.23
2018-06-19T03:02:19.972Z,6.53
2018-06-19T03:04:48.812Z,6.43
2018-06-19T03:07:18.093Z,6.07
2018-06-19T03:09:51.661Z,5.60
2018-06-19T03:12:21.784Z,5.07
2018-06-19T03:14:50.671Z,6.83
2018-06-19T03:17:19.459Z,6.03
2018-06-19T03:19:48.575Z,5.27
2018-06-19T03:22:17.480Z,6.77
2018-06-19T03:24:46.301Z,5.73
2018-06-19T03:27:15.070Z,5.57
2018-06-19T03:29:43.837Z,5.57
2018-06-19T03:32:13.625Z,7.33
2018-06-19T03:34:43.487Z,5.10
2018-06-19T03:37:14.407Z,6.47
2018-06-19T03:39:43.209Z,5.87
2018-06-19T03:42:13.731Z,5.57
2018-06-19T03:44:44.009Z,4.87
2018-06-19T03:47:12.846Z,5.13
2018-06-19T03:49:42.716Z,6.97
2018-06-19T03:52:12.477Z,6.40
2018-06-19T03:54:41.274Z,5.13
2018-06-19T03:57:10.704Z,6.13
2018-06-19T03:59:40.264Z,6.13
2018-06-19T04:02:10.018Z,5.60
2018-06-19T04:04:38.958Z,6.47
2018-06-19T04:07:07.429Z,6.70
2018-06-19T04:09:36.243Z,6.30
2018-06-19T04:12:05.362Z,7.47
2018-06-19T04:14:36.071Z,6.33
2018-06-19T04:17:06.397Z,6.03
2018-06-19T04:19:35.175Z,7.10
2018-06-19T04:22:04.476Z,5.80
2018-06-19T04:24:33.910Z,7.03
2018-06-19T04:27:02.828Z,5.97
2018-06-19T04:29:33.694Z,6.50
2018-06-19T04:32:03.399Z,6.07
2018-06-19T04:34:32.467Z,5.70
2018-06-19T04:37:01.232Z,6.83
2018-06-19T04:39:31.062Z,5.63
2018-06-19T04:42:00.825Z,5.67
2018-06-19T04:44:31.121Z,5.40
2018-06-19T04:47:01.672Z,5.27
2018-06-19T04:49:30.869Z,5.67
2018-06-19T04:52:00.619Z,5.60
2018-06-19T04:54:31.375Z,5.37
2018-06-19T04:57:00.886Z,5.87
2018-06-19T04:59:29.666Z,5.93
2018-06-19T05:01:59.815Z,6.80
2018-06-19T05:04:29.080Z,6.10
2018-06-19T05:06:59.715Z,4.80
2018-06-19T05:09:28.590Z,5.47
2018-06-19T05:11:59.286Z,5.60
2018-06-19T05:14:29.177Z,5.10
2018-06-19T05:16:58.879Z,6.90
2018-06-19T05:19:27.973Z,5.40
2018-06-19T05:21:57.796Z,6.93
2018-06-19T05:24:27.653Z,5.10
2018-06-19T05:26:56.517Z,5.50
2018-06-19T05:29:28.321Z,5.83
2018-06-19T05:31:58.311Z,7.80
2018-06-19T05:34:28.969Z,6.37
2018-06-19T05:36:58.386Z,41.97
2018-06-19T05:39:27.426Z,19.30
2018-06-19T05:41:56.403Z,13.33
2018-06-19T05:44:25.324Z,14.80
2018-06-19T05:46:56.328Z,12.77
2018-06-19T05:49:25.090Z,9.03
2018-06-19T05:51:53.406Z,12.20
2018-06-19T05:54:23.315Z,12.67
2018-06-19T05:56:52.888Z,11.10
2018-06-19T05:59:23.415Z,10.37
2018-06-19T06:01:52.697Z,10.03
2018-06-19T06:04:22.007Z,10.20
2018-06-19T06:06:50.930Z,9.50
2018-06-19T06:09:22.068Z,8.07
2018-06-19T06:11:51.357Z,7.73
2018-06-19T06:14:20.397Z,9.03
2018-06-19T06:16:51.806Z,9.97
2018-06-19T06:19:20.943Z,7.77
2018-06-19T06:21:49.589Z,16.27
2018-06-19T06:24:20.301Z,10.03
2018-06-19T06:26:50.803Z,10.70
2018-06-19T06:29:19.173Z,10.00
2018-06-19T06:31:47.539Z,10.37
2018-06-19T06:34:21.218Z,8.83
2018-06-19T06:36:50.794Z,13.57
2018-06-19T06:39:19.447Z,8.73
2018-06-19T06:41:48.874Z,12.37
2018-06-19T06:44:18.226Z,10.43
2018-06-19T06:46:48.765Z,11.93
2018-06-19T06:49:17.290Z,10.07
2018-06-19T06:51:47.999Z,8.37
2018-06-19T06:54:16.505Z,8.73
2018-06-19T06:56:46.466Z,9.07
2018-06-19T06:59:14.827Z,8.70
2018-06-19T07:01:43.321Z,11.77
2018-06-19T07:04:11.723Z,16.43
2018-06-19T07:06:44.172Z,9.60
2018-06-19T07:09:12.786Z,12.87
2018-06-19T07:11:41.157Z,10.30
2018-06-19T07:14:09.519Z,8.47
2018-06-19T07:16:38.246Z,7.83
2018-06-19T07:19:06.629Z,6.90
2018-06-19T07:21:35.005Z,12.83
2018-06-19T07:31:25.199Z,26.30
2018-06-19T07:33:53.861Z,25.27
2018-06-19T07:36:22.434Z,26.50
2018-06-19T07:38:51.362Z,18.60
2018-06-19T07:41:19.702Z,19.03
2018-06-19T07:43:48.062Z,17.27
2018-06-19T07:46:16.345Z,16.83
2018-06-19T07:48:44.398Z,15.83
2018-06-19T07:51:12.716Z,12.60
2018-06-19T07:53:41.090Z,10.73
2018-06-19T07:56:09.405Z,10.87
2018-06-19T07:58:37.792Z,11.60
2018-06-19T08:01:06.274Z,9.43
2018-06-19T08:03:34.588Z,9.30
2018-06-19T08:06:02.930Z,9.10
2018-06-19T08:08:31.055Z,8.43
2018-06-19T08:10:59.386Z,7.73
2018-06-19T08:13:27.534Z,8.63
2018-06-19T08:15:55.858Z,7.93
2018-06-19T08:18:24.224Z,8.40
2018-06-19T08:20:52.603Z,7.77
2018-06-19T08:23:20.929Z,8.43
2018-06-19T08:25:49.281Z,7.30
2018-06-19T08:28:17.610Z,7.63
2018-06-19T08:30:45.716Z,5.97
2018-06-19T08:33:14.019Z,5.90
2018-06-19T08:35:42.329Z,6.23
2018-06-19T08:38:10.419Z,5.47
2018-06-19T08:40:38.758Z,5.30
2018-06-19T08:43:07.246Z,6.00
2018-06-19T08:45:35.250Z,5.30
2018-06-19T08:48:03.590Z,4.43
2018-06-19T08:50:31.876Z,5.23
2018-06-19T08:53:00.151Z,4.53
2018-06-19T08:55:28.423Z,4.80
2018-06-19T08:57:56.729Z,6.97
2018-06-19T09:00:25.057Z,3.63
2018-06-19T09:02:53.101Z,4.63
2018-06-19T09:05:21.405Z,5.17
2018-06-19T09:07:49.474Z,3.73
2018-06-19T09:10:17.561Z,4.60
2018-06-19T09:12:45.795Z,4.53
2018-06-19T09:15:14.128Z,4.27
2018-06-19T09:17:42.517Z,3.87
2018-06-19T09:20:10.834Z,3.80
2018-06-19T09:22:39.084Z,4.43
2018-06-19T09:25:07.378Z,4.07
2018-06-19T09:27:35.709Z,3.47
2018-06-19T09:30:03.960Z,4.17
2018-06-19T09:32:32.241Z,3.43
2018-06-19T09:35:00.498Z,4.20
2018-06-19T09:37:28.791Z,4.37
2018-06-19T09:39:57.068Z,3.40
2018-06-19T09:42:25.352Z,3.50
2018-06-19T09:44:53.665Z,4.73
2018-06-19T09:47:21.944Z,4.13
2018-06-19T09:49:50.247Z,3.30
2018-06-19T09:52:19.111Z,5.33
2018-06-19T09:54:47.144Z,3.50
2018-06-19T09:57:15.427Z,3.37
2018-06-19T09:59:43.868Z,3.67
2018-06-19T10:02:12.739Z,3.40
2018-06-19T10:04:40.999Z,3.30
2018-06-19T10:07:09.299Z,3.23
2018-06-19T10:09:37.574Z,3.83
2018-06-19T10:12:05.872Z,3.37
2018-06-19T10:14:34.114Z,3.87
2018-06-19T10:17:02.392Z,4.17
2018-06-19T10:19:30.722Z,3.87
2018-06-19T10:21:58.924Z,5.67
2018-06-19T10:24:27.273Z,6.93
2018-06-19T10:26:55.547Z,7.47
2018-06-19T10:29:23.851Z,4.80
2018-06-19T10:31:52.196Z,5.70
2018-06-19T10:34:20.474Z,5.87
2018-06-19T10:36:48.752Z,6.17
2018-06-19T10:39:17.891Z,6.07
2018-06-19T10:41:46.185Z,6.10
2018-06-19T10:44:14.451Z,3.73
2018-06-19T10:46:42.720Z,4.53
2018-06-19T10:49:11.943Z,3.83
2018-06-19T10:51:40.229Z,4.33
2018-06-19T10:54:08.644Z,4.33
2018-06-19T10:56:36.993Z,4.60
2018-06-19T10:59:05.249Z,4.67
2018-06-19T11:01:33.515Z,5.03
2018-06-19T11:04:01.780Z,4.67
2018-06-19T11:06:30.067Z,4.93
2018-06-19T11:08:58.489Z,4.90
2018-06-19T11:11:26.857Z,5.27
2018-06-19T11:13:55.147Z,5.00
2018-06-19T11:16:23.444Z,4.23
2018-06-19T11:18:51.744Z,3.70
2018-06-19T11:21:20.051Z,4.10
2018-06-19T11:23:48.307Z,3.80
2018-06-19T11:26:16.330Z,4.00
2018-06-19T11:28:44.644Z,4.20
2018-06-19T11:31:12.942Z,4.63
2018-06-19T11:33:40.986Z,5.17
2018-06-19T11:36:09.283Z,4.67
2018-06-19T11:38:37.440Z,6.23
2018-06-19T11:41:05.741Z,3.93
2018-06-19T11:43:34.067Z,5.27
2018-06-19T11:46:02.374Z,5.00
2018-06-19T11:48:30.730Z,4.33
2018-06-19T11:50:59.126Z,5.00
2018-06-19T11:53:27.640Z,5.37
2018-06-19T11:55:56.230Z,4.70
2018-06-19T11:58:24.550Z,4.07
2018-06-19T12:00:53.828Z,4.93
2018-06-19T12:03:22.183Z,5.77
2018-06-19T12:05:50.854Z,4.47
2018-06-19T12:08:19.150Z,4.67
2018-06-19T12:10:47.543Z,6.53
2018-06-19T12:13:15.903Z,4.23
2018-06-19T12:15:44.190Z,4.43
2018-06-19T12:18:12.514Z,4.53
2018-06-19T12:20:40.847Z,4.80
2018-06-19T12:23:09.323Z,5.17
2018-06-19T12:25:37.349Z,4.20
2018-06-19T12:28:05.671Z,3.77
2018-06-19T12:30:33.734Z,4.40
2018-06-19T12:33:02.229Z,3.73
2018-06-19T12:35:30.385Z,4.07
2018-06-19T12:37:58.703Z,3.90
2018-06-19T12:40:27.030Z,3.77
2018-06-19T12:42:55.430Z,5.00
2018-06-19T12:45:23.707Z,5.73
2018-06-19T12:47:52.053Z,4.60
2018-06-19T12:50:35.167Z,5.23
2018-06-19T12:54:18.442Z,4.23
2018-06-19T12:56:46.765Z,4.83
2018-06-19T12:59:15.063Z,4.87
2018-06-19T13:01:43.414Z,4.90
2018-06-19T13:04:23.159Z,5.07
2018-06-19T13:06:51.544Z,3.87
2018-06-19T13:09:19.837Z,5.27
2018-06-19T13:11:47.890Z,3.60
2018-06-19T13:14:38.476Z,4.00
2018-06-19T13:17:18.251Z,4.13
2018-06-19T13:19:51.963Z,4.67
2018-06-19T13:22:20.304Z,4.83
2018-06-19T13:24:48.639Z,4.43
2018-06-19T13:27:16.995Z,4.27
2018-06-19T13:29:57.835Z,5.23
2018-06-19T13:32:26.604Z,3.63
2018-06-19T13:34:55.014Z,4.27
2018-06-19T13:37:23.341Z,5.30
2018-06-19T13:41:22.799Z,3.77
2018-06-19T13:43:57.405Z,5.90
2018-06-19T13:46:25.662Z,3.07
2018-06-19T13:48:53.971Z,5.23
2018-06-19T13:51:22.435Z,3.97
2018-06-19T13:53:50.467Z,4.93
2018-06-19T13:57:30.250Z,4.70
2018-06-19T13:59:59.723Z,3.43
2018-06-19T14:02:28.148Z,3.57
2018-06-19T14:04:56.862Z,3.07
2018-06-19T14:07:26.130Z,4.37
2018-06-19T14:10:06.130Z,3.17
2018-06-19T14:13:13.517Z,4.17
2018-06-19T14:15:50.242Z,4.80
2018-06-19T14:18:19.991Z,4.60
2018-06-19T14:20:48.348Z,3.97
2018-06-19T14:23:16.666Z,3.97
2018-06-19T14:25:45.176Z,4.73
2018-06-19T14:28:13.736Z,4.10
2018-06-19T14:30:42.068Z,4.07
2018-06-19T14:33:10.470Z,4.67
2018-06-19T14:35:38.878Z,4.23
2018-06-19T14:38:06.919Z,3.43
2018-06-19T14:40:35.262Z,5.90
2018-06-19T14:43:03.633Z,4.23
2018-06-19T14:45:32.063Z,3.67
2018-06-19T14:48:00.122Z,3.83
2018-06-19T14:50:28.566Z,4.00
2018-06-19T14:52:56.889Z,3.73
2018-06-19T14:55:24.932Z,3.93
2018-06-19T14:57:53.268Z,3.33
2018-06-19T15:00:21.601Z,3.97
2018-06-19T15:02:50.001Z,4.23
2018-06-19T15:05:18.392Z,3.93
2018-06-19T15:07:54.915Z,3.77
2018-06-19T15:10:25.160Z,4.70
2018-06-19T15:12:56.483Z,4.13
2018-06-19T15:15:24.786Z,4.20
2018-06-19T15:17:53.169Z,5.57
2018-06-19T15:20:21.510Z,3.70
2018-06-19T15:22:49.844Z,3.53
2018-06-19T15:25:18.144Z,4.43
2018-06-19T15:27:46.568Z,4.90
2018-06-19T15:30:14.953Z,4.43
2018-06-19T15:32:43.269Z,4.60
2018-06-19T15:35:11.601Z,4.63
2018-06-19T15:37:39.971Z,4.07
2018-06-19T15:40:08.329Z,5.17
2018-06-19T15:42:36.381Z,4.67
2018-06-19T15:45:04.436Z,3.93
2018-06-19T15:47:32.784Z,4.97
2018-06-19T15:50:01.129Z,5.30
2018-06-19T15:52:29.447Z,4.43
2018-06-19T15:54:57.766Z,3.50
2018-06-19T15:57:26.358Z,5.13
2018-06-19T15:59:54.748Z,4.73
2018-06-19T16:02:23.194Z,5.33
2018-06-19T16:04:51.293Z,4.13
2018-06-19T16:07:19.616Z,4.30
2018-06-19T16:09:47.915Z,3.57
2018-06-19T16:12:16.426Z,3.37
2018-06-19T16:14:44.779Z,3.93
2018-06-19T16:17:19.692Z,4.07
2018-06-19T16:19:48.022Z,4.57
2018-06-19T16:22:16.470Z,4.40
2018-06-19T16:24:44.853Z,4.90
2018-06-19T16:27:13.246Z,5.27
2018-06-19T18:05:49.315Z,15.87
2018-06-19T18:08:17.703Z,17.20
2018-06-19T18:10:46.122Z,17.43
2018-06-19T18:13:14.500Z,34.47
2018-06-19T18:15:42.876Z,145.03
2018-06-19T18:18:11.263Z,86.47
2018-06-19T18:20:39.589Z,45.83
2018-06-19T18:23:08.017Z,49.43
2018-06-19T18:25:36.358Z,31.83
2018-06-19T18:28:04.764Z,30.10
2018-06-19T18:30:33.155Z,22.23
2018-06-19T18:33:01.511Z,17.10
2018-06-19T18:35:29.891Z,27.57
2018-06-19T18:37:58.269Z,37.67
2018-06-19T18:40:26.730Z,24.93
2018-06-19T18:42:55.277Z,21.47
2018-06-19T18:45:23.819Z,22.13
2018-06-19T18:47:52.186Z,15.77
2018-06-19T18:50:21.441Z,16.83
2018-06-19T18:52:50.266Z,15.93
2018-06-19T18:55:18.730Z,16.87
2018-06-19T18:57:47.147Z,11.80
2018-06-19T19:00:15.564Z,11.03
2018-06-19T19:02:43.952Z,12.83
2018-06-19T19:05:12.436Z,15.70
2018-06-19T19:07:40.894Z,12.03
2018-06-19T19:10:14.802Z,9.13
2018-06-19T19:12:43.290Z,10.10
2018-06-19T19:15:16.931Z,11.93
2018-06-19T19:17:50.494Z,8.93
2018-06-19T19:20:18.994Z,9.97
2018-06-19T19:22:47.359Z,9.90
2018-06-19T19:25:16.780Z,9.37
2018-06-19T19:27:50.494Z,9.60
2018-06-19T19:30:19.969Z,10.93
2018-06-19T19:32:48.383Z,7.70
2018-06-19T19:35:16.821Z,9.23
2018-06-19T19:37:50.693Z,8.10
2018-06-19T19:40:19.102Z,11.50
2018-06-19T19:42:48.109Z,7.73
2018-06-19T19:45:16.549Z,6.13
2018-06-19T19:47:50.221Z,6.77
2018-06-19T19:50:23.707Z,6.83
2018-06-19T19:52:52.174Z,6.73
2018-06-19T19:55:20.678Z,7.10
2018-06-19T19:57:54.343Z,6.03
2018-06-19T20:00:26.404Z,8.63
2018-06-19T20:02:55.406Z,6.93
2018-06-19T20:05:23.831Z,6.00
2018-06-19T20:07:52.225Z,5.50
2018-06-19T20:10:20.683Z,7.33
2018-06-19T20:12:49.050Z,7.37
2018-06-19T20:15:17.694Z,6.97
2018-06-19T20:17:46.183Z,7.73
2018-06-19T20:20:14.534Z,8.33
2018-06-19T20:22:42.986Z,6.67
2018-06-19T20:25:11.403Z,7.97
2018-06-19T20:27:39.938Z,7.23
2018-06-19T20:30:09.336Z,12.33
2018-06-19T20:32:38.154Z,6.73
2018-06-19T20:35:06.531Z,8.23
2018-06-19T20:37:34.966Z,5.63
2018-06-19T20:40:03.486Z,7.97
2018-06-19T20:42:32.045Z,6.10
2018-06-19T20:45:00.830Z,6.80
